sensor_id;sensor_type;location;lat;lon;timestamp;temperature;humidity
52621;DHT22;38515;53.160;6.990;2022-10-17T00:01:51;11.60;99.90
52621;DHT22;38515;53.160;6.990;2022-10-17T00:04:17;11.60;99.90
52621;DHT22;38515;53.160;6.990;2022-10-17T00:06:42;11.60;99.90
52621;DHT22;38515;53.160;6.990;2022-10-17T00:09:08;11.60;99.90
52621;DHT22;38515;53.160;6.990;2022-10-17T00:11:34;11.70;99.90
52621;DHT22;38515;53.160;6.990;2022-10-17T00:14:00;11.80;99.90
52621;DHT22;38515;53.160;6.990;2022-10-17T00:16:28;11.80;99.90
52621;DHT22;38515;53.160;6.990;2022-10-17T00:18:55;11.90;99.90
52621;DHT22;38515;53.160;6.990;2022-10-17T00:21:21;11.90;99.90
52621;DHT22;38515;53.160;6.990;2022-10-17T00:23:48;12.00;99.90
52621;DHT22;38515;53.160;6.990;2022-10-17T00:26:14;12.00;99.90
52621;DHT22;38515;53.160;6.990;2022-10-17T00:28:40;12.00;99.90
52621;DHT22;38515;53.160;6.990;2022-10-17T00:31:06;12.00;99.90
52621;DHT22;38515;53.160;6.990;2022-10-17T00:33:34;12.10;99.90
52621;DHT22;38515;53.160;6.990;2022-10-17T00:38:28;12.10;99.90
52621;DHT22;38515;53.160;6.990;2022-10-17T00:40:53;12.10;99.90
52621;DHT22;38515;53.160;6.990;2022-10-17T00:43:19;12.10;99.90
52621;DHT22;38515;53.160;6.990;2022-10-17T00:45:45;12.10;99.90
52621;DHT22;38515;53.160;6.990;2022-10-17T00:48:12;12.10;99.90
52621;DHT22;38515;53.160;6.990;2022-10-17T00:50:41;12.20;99.90
52621;DHT22;38515;53.160;6.990;2022-10-17T00:53:08;12.30;99.90
52621;DHT22;38515;53.160;6.990;2022-10-17T00:55:38;12.30;99.90
52621;DHT22;38515;53.160;6.990;2022-10-17T00:58:06;12.40;99.90
52621;DHT22;38515;53.160;6.990;2022-10-17T01:00:33;12.40;99.90
52621;DHT22;38515;53.160;6.990;2022-10-17T01:02:59;12.40;99.90
52621;DHT22;38515;53.160;6.990;2022-10-17T01:05:25;12.50;99.90
52621;DHT22;38515;53.160;6.990;2022-10-17T01:07:51;12.20;99.90
52621;DHT22;38515;53.160;6.990;2022-10-17T01:10:18;12.50;99.90
52621;DHT22;38515;53.160;6.990;2022-10-17T01:13:05;12.50;99.90
52621;DHT22;38515;53.160;6.990;2022-10-17T01:15:43;12.50;99.90
52621;DHT22;38515;53.160;6.990;2022-10-17T01:18:28;12.60;99.90
52621;DHT22;38515;53.160;6.990;2022-10-17T01:26:24;12.60;99.90
52621;DHT22;38515;53.160;6.990;2022-10-17T01:31:46;12.60;99.90
52621;DHT22;38515;53.160;6.990;2022-10-17T01:34:18;12.70;99.90
52621;DHT22;38515;53.160;6.990;2022-10-17T01:39:16;12.80;99.90
52621;DHT22;38515;53.160;6.990;2022-10-17T01:41:59;12.80;99.90
52621;DHT22;38515;53.160;6.990;2022-10-17T01:44:45;12.80;99.90
52621;DHT22;38515;53.160;6.990;2022-10-17T01:47:16;12.80;99.90
52621;DHT22;38515;53.160;6.990;2022-10-17T01:49:45;12.80;99.90
52621;DHT22;38515;53.160;6.990;2022-10-17T01:52:24;12.90;99.90
52621;DHT22;38515;53.160;6.990;2022-10-17T01:55:03;12.90;99.90
52621;DHT22;38515;53.160;6.990;2022-10-17T01:57:35;12.90;99.90
52621;DHT22;38515;53.160;6.990;2022-10-17T02:00:06;12.90;99.90
52621;DHT22;38515;53.160;6.990;2022-10-17T02:02:34;12.90;99.90
52621;DHT22;38515;53.160;6.990;2022-10-17T02:05:02;12.90;99.90
52621;DHT22;38515;53.160;6.990;2022-10-17T02:07:28;12.90;99.90
52621;DHT22;38515;53.160;6.990;2022-10-17T02:09:54;12.90;99.90
52621;DHT22;38515;53.160;6.990;2022-10-17T02:17:56;13.00;99.90
52621;DHT22;38515;53.160;6.990;2022-10-17T02:20:29;12.90;99.90
52621;DHT22;38515;53.160;6.990;2022-10-17T02:23:10;12.90;99.90
52621;DHT22;38515;53.160;6.990;2022-10-17T02:25:53;12.90;99.90
52621;DHT22;38515;53.160;6.990;2022-10-17T02:28:30;12.00;99.90
52621;DHT22;38515;53.160;6.990;2022-10-17T02:31:03;12.80;99.90
52621;DHT22;38515;53.160;6.990;2022-10-17T02:36:16;12.80;99.90
52621;DHT22;38515;53.160;6.990;2022-10-17T02:38:44;12.70;99.90
52621;DHT22;38515;53.160;6.990;2022-10-17T02:41:14;12.70;99.90
52621;DHT22;38515;53.160;6.990;2022-10-17T02:43:41;12.70;99.90
52621;DHT22;38515;53.160;6.990;2022-10-17T02:46:12;12.70;99.90
52621;DHT22;38515;53.160;6.990;2022-10-17T02:48:54;12.70;99.90
52621;DHT22;38515;53.160;6.990;2022-10-17T02:51:32;12.60;99.90
52621;DHT22;38515;53.160;6.990;2022-10-17T02:54:14;12.60;99.90
52621;DHT22;38515;53.160;6.990;2022-10-17T02:56:53;12.60;99.90
52621;DHT22;38515;53.160;6.990;2022-10-17T02:59:21;12.70;99.90
52621;DHT22;38515;53.160;6.990;2022-10-17T03:01:50;12.70;99.90
52621;DHT22;38515;53.160;6.990;2022-10-17T03:04:17;12.60;99.90
52621;DHT22;38515;53.160;6.990;2022-10-17T03:06:44;12.70;99.90
52621;DHT22;38515;53.160;6.990;2022-10-17T03:09:11;12.70;99.90
52621;DHT22;38515;53.160;6.990;2022-10-17T03:11:37;12.70;99.90
52621;DHT22;38515;53.160;6.990;2022-10-17T03:14:03;12.70;99.90
52621;DHT22;38515;53.160;6.990;2022-10-17T03:16:28;12.70;99.90
52621;DHT22;38515;53.160;6.990;2022-10-17T03:18:55;12.70;99.90
52621;DHT22;38515;53.160;6.990;2022-10-17T03:21:21;12.60;99.90
52621;DHT22;38515;53.160;6.990;2022-10-17T03:23:47;12.60;99.90
52621;DHT22;38515;53.160;6.990;2022-10-17T03:26:12;12.50;99.90
52621;DHT22;38515;53.160;6.990;2022-10-17T03:28:38;12.50;99.90
52621;DHT22;38515;53.160;6.990;2022-10-17T03:31:08;12.50;99.90
52621;DHT22;38515;53.160;6.990;2022-10-17T03:33:35;12.50;99.90
52621;DHT22;38515;53.160;6.990;2022-10-17T03:36:05;12.40;99.90
52621;DHT22;38515;53.160;6.990;2022-10-17T03:38:34;12.40;99.90
52621;DHT22;38515;53.160;6.990;2022-10-17T03:41:01;12.40;99.90
52621;DHT22;38515;53.160;6.990;2022-10-17T03:43:27;12.40;99.90
52621;DHT22;38515;53.160;6.990;2022-10-17T03:45:53;12.30;99.90
52621;DHT22;38515;53.160;6.990;2022-10-17T03:48:19;12.30;99.90
52621;DHT22;38515;53.160;6.990;2022-10-17T03:50:44;11.90;99.90
52621;DHT22;38515;53.160;6.990;2022-10-17T03:53:11;12.30;99.90
52621;DHT22;38515;53.160;6.990;2022-10-17T03:55:37;12.30;99.90
52621;DHT22;38515;53.160;6.990;2022-10-17T03:58:02;12.30;99.90
52621;DHT22;38515;53.160;6.990;2022-10-17T04:00:28;12.20;99.90
52621;DHT22;38515;53.160;6.990;2022-10-17T04:02:54;12.20;99.90
52621;DHT22;38515;53.160;6.990;2022-10-17T04:05:20;12.30;99.90
52621;DHT22;38515;53.160;6.990;2022-10-17T04:07:46;12.30;99.90
52621;DHT22;38515;53.160;6.990;2022-10-17T04:10:12;12.20;99.90
52621;DHT22;38515;53.160;6.990;2022-10-17T04:12:37;12.30;99.90
52621;DHT22;38515;53.160;6.990;2022-10-17T04:15:04;12.30;99.90
52621;DHT22;38515;53.160;6.990;2022-10-17T04:17:30;12.30;99.90
52621;DHT22;38515;53.160;6.990;2022-10-17T04:19:56;12.30;99.90
52621;DHT22;38515;53.160;6.990;2022-10-17T04:22:22;12.30;99.90
52621;DHT22;38515;53.160;6.990;2022-10-17T04:24:48;12.30;99.90
52621;DHT22;38515;53.160;6.990;2022-10-17T04:27:14;12.30;99.90
52621;DHT22;38515;53.160;6.990;2022-10-17T04:29:40;12.40;99.90
52621;DHT22;38515;53.160;6.990;2022-10-17T04:32:06;12.40;99.90
52621;DHT22;38515;53.160;6.990;2022-10-17T04:34:32;12.50;99.90
52621;DHT22;38515;53.160;6.990;2022-10-17T04:36:58;12.50;99.90
52621;DHT22;38515;53.160;6.990;2022-10-17T04:39:23;12.60;99.90
52621;DHT22;38515;53.160;6.990;2022-10-17T04:41:49;12.50;99.90
52621;DHT22;38515;53.160;6.990;2022-10-17T04:44:15;12.60;99.90
52621;DHT22;38515;53.160;6.990;2022-10-17T04:46:41;12.60;99.90
52621;DHT22;38515;53.160;6.990;2022-10-17T04:49:07;12.70;99.90
52621;DHT22;38515;53.160;6.990;2022-10-17T04:51:33;12.70;99.90
52621;DHT22;38515;53.160;6.990;2022-10-17T04:54:00;12.80;99.90
52621;DHT22;38515;53.160;6.990;2022-10-17T04:56:25;12.90;99.90
52621;DHT22;38515;53.160;6.990;2022-10-17T04:58:51;13.00;99.90
52621;DHT22;38515;53.160;6.990;2022-10-17T05:01:19;13.10;99.90
52621;DHT22;38515;53.160;6.990;2022-10-17T05:03:46;13.10;99.90
52621;DHT22;38515;53.160;6.990;2022-10-17T05:06:14;13.20;99.90
52621;DHT22;38515;53.160;6.990;2022-10-17T05:08:40;13.30;99.90
52621;DHT22;38515;53.160;6.990;2022-10-17T05:11:17;13.30;99.90
52621;DHT22;38515;53.160;6.990;2022-10-17T05:13:43;13.40;99.90
52621;DHT22;38515;53.160;6.990;2022-10-17T05:16:09;13.40;99.90
52621;DHT22;38515;53.160;6.990;2022-10-17T05:18:35;13.50;99.90
52621;DHT22;38515;53.160;6.990;2022-10-17T05:21:02;13.20;99.90
52621;DHT22;38515;53.160;6.990;2022-10-17T05:23:29;13.50;99.90
52621;DHT22;38515;53.160;6.990;2022-10-17T05:25:55;13.50;99.90
52621;DHT22;38515;53.160;6.990;2022-10-17T05:28:22;13.50;99.90
52621;DHT22;38515;53.160;6.990;2022-10-17T05:30:48;13.50;99.90
52621;DHT22;38515;53.160;6.990;2022-10-17T05:33:14;13.60;99.90
52621;DHT22;38515;53.160;6.990;2022-10-17T05:35:40;13.60;99.90
52621;DHT22;38515;53.160;6.990;2022-10-17T05:38:05;13.50;99.90
52621;DHT22;38515;53.160;6.990;2022-10-17T05:40:32;13.50;99.90
52621;DHT22;38515;53.160;6.990;2022-10-17T05:42:58;13.50;99.90
52621;DHT22;38515;53.160;6.990;2022-10-17T05:45:23;13.50;99.90
52621;DHT22;38515;53.160;6.990;2022-10-17T05:47:49;13.50;99.90
52621;DHT22;38515;53.160;6.990;2022-10-17T05:50:16;13.50;99.90
52621;DHT22;38515;53.160;6.990;2022-10-17T05:52:45;13.50;99.90
52621;DHT22;38515;53.160;6.990;2022-10-17T05:55:11;13.50;99.90
52621;DHT22;38515;53.160;6.990;2022-10-17T05:57:37;13.60;99.90
52621;DHT22;38515;53.160;6.990;2022-10-17T06:00:04;13.60;99.90
52621;DHT22;38515;53.160;6.990;2022-10-17T06:02:30;13.60;99.90
52621;DHT22;38515;53.160;6.990;2022-10-17T06:04:56;13.50;99.90
52621;DHT22;38515;53.160;6.990;2022-10-17T06:07:22;13.50;99.90
52621;DHT22;38515;53.160;6.990;2022-10-17T06:09:47;13.50;99.90
52621;DHT22;38515;53.160;6.990;2022-10-17T06:12:14;13.60;99.90
52621;DHT22;38515;53.160;6.990;2022-10-17T06:14:39;13.50;99.90
52621;DHT22;38515;53.160;6.990;2022-10-17T06:17:05;13.60;99.90
52621;DHT22;38515;53.160;6.990;2022-10-17T06:19:31;13.60;99.90
52621;DHT22;38515;53.160;6.990;2022-10-17T06:21:57;13.60;99.90
52621;DHT22;38515;53.160;6.990;2022-10-17T06:24:23;13.60;99.90
52621;DHT22;38515;53.160;6.990;2022-10-17T06:26:51;13.60;99.90
52621;DHT22;38515;53.160;6.990;2022-10-17T06:29:17;13.60;99.90
52621;DHT22;38515;53.160;6.990;2022-10-17T06:31:43;13.70;99.90
52621;DHT22;38515;53.160;6.990;2022-10-17T06:34:09;13.70;99.90
52621;DHT22;38515;53.160;6.990;2022-10-17T06:36:35;13.80;99.90
52621;DHT22;38515;53.160;6.990;2022-10-17T06:39:00;13.80;99.90
52621;DHT22;38515;53.160;6.990;2022-10-17T06:41:26;13.90;99.90
52621;DHT22;38515;53.160;6.990;2022-10-17T06:43:52;13.90;99.90
52621;DHT22;38515;53.160;6.990;2022-10-17T06:46:18;14.00;99.90
52621;DHT22;38515;53.160;6.990;2022-10-17T06:48:44;14.00;99.90
52621;DHT22;38515;53.160;6.990;2022-10-17T06:51:10;14.00;99.90
52621;DHT22;38515;53.160;6.990;2022-10-17T06:53:38;14.10;99.90
52621;DHT22;38515;53.160;6.990;2022-10-17T06:56:05;14.20;99.90
52621;DHT22;38515;53.160;6.990;2022-10-17T06:58:33;14.20;99.90
52621;DHT22;38515;53.160;6.990;2022-10-17T07:01:01;14.30;99.90
52621;DHT22;38515;53.160;6.990;2022-10-17T07:03:28;14.30;99.90
52621;DHT22;38515;53.160;6.990;2022-10-17T07:05:54;14.40;99.90
52621;DHT22;38515;53.160;6.990;2022-10-17T07:08:21;14.40;99.90
52621;DHT22;38515;53.160;6.990;2022-10-17T07:10:47;14.50;99.90
52621;DHT22;38515;53.160;6.990;2022-10-17T07:13:13;14.50;99.90
52621;DHT22;38515;53.160;6.990;2022-10-17T07:15:39;14.60;99.90
52621;DHT22;38515;53.160;6.990;2022-10-17T07:18:06;14.60;99.90
52621;DHT22;38515;53.160;6.990;2022-10-17T07:20:32;14.60;99.90
52621;DHT22;38515;53.160;6.990;2022-10-17T07:22:58;14.70;99.90
52621;DHT22;38515;53.160;6.990;2022-10-17T07:25:25;14.80;99.90
52621;DHT22;38515;53.160;6.990;2022-10-17T07:27:52;14.80;99.90
52621;DHT22;38515;53.160;6.990;2022-10-17T07:30:18;14.90;99.90
52621;DHT22;38515;53.160;6.990;2022-10-17T07:32:44;14.90;99.90
52621;DHT22;38515;53.160;6.990;2022-10-17T07:35:11;15.00;99.90
52621;DHT22;38515;53.160;6.990;2022-10-17T07:37:37;15.20;99.90
52621;DHT22;38515;53.160;6.990;2022-10-17T07:40:05;15.30;99.90
52621;DHT22;38515;53.160;6.990;2022-10-17T07:42:32;15.30;99.90
52621;DHT22;38515;53.160;6.990;2022-10-17T07:44:58;15.40;99.90
52621;DHT22;38515;53.160;6.990;2022-10-17T07:47:24;15.40;99.90
52621;DHT22;38515;53.160;6.990;2022-10-17T07:49:50;15.50;99.90
52621;DHT22;38515;53.160;6.990;2022-10-17T07:52:16;15.50;99.90
52621;DHT22;38515;53.160;6.990;2022-10-17T07:54:42;15.50;99.90
52621;DHT22;38515;53.160;6.990;2022-10-17T07:57:09;15.60;99.90
52621;DHT22;38515;53.160;6.990;2022-10-17T07:59:37;15.60;99.90
52621;DHT22;38515;53.160;6.990;2022-10-17T08:02:03;15.70;99.90
52621;DHT22;38515;53.160;6.990;2022-10-17T08:04:29;15.70;99.90
52621;DHT22;38515;53.160;6.990;2022-10-17T08:06:55;15.80;99.90
52621;DHT22;38515;53.160;6.990;2022-10-17T08:09:21;15.90;99.90
52621;DHT22;38515;53.160;6.990;2022-10-17T08:11:47;15.90;99.90
52621;DHT22;38515;53.160;6.990;2022-10-17T08:14:13;16.00;99.90
52621;DHT22;38515;53.160;6.990;2022-10-17T08:16:41;16.00;99.90
52621;DHT22;38515;53.160;6.990;2022-10-17T08:19:08;16.10;99.90
52621;DHT22;38515;53.160;6.990;2022-10-17T08:21:36;16.10;99.90
52621;DHT22;38515;53.160;6.990;2022-10-17T08:24:03;16.10;99.90
52621;DHT22;38515;53.160;6.990;2022-10-17T08:26:29;16.20;99.90
52621;DHT22;38515;53.160;6.990;2022-10-17T08:28:55;16.40;99.90
52621;DHT22;38515;53.160;6.990;2022-10-17T08:31:21;16.50;99.90
52621;DHT22;38515;53.160;6.990;2022-10-17T08:33:48;16.60;99.90
52621;DHT22;38515;53.160;6.990;2022-10-17T08:36:17;16.70;99.90
52621;DHT22;38515;53.160;6.990;2022-10-17T08:38:44;16.70;99.90
52621;DHT22;38515;53.160;6.990;2022-10-17T08:44:17;16.90;99.90
52621;DHT22;38515;53.160;6.990;2022-10-17T08:46:46;16.90;99.90
52621;DHT22;38515;53.160;6.990;2022-10-17T08:49:22;16.90;99.90
52621;DHT22;38515;53.160;6.990;2022-10-17T08:51:56;17.00;99.90
52621;DHT22;38515;53.160;6.990;2022-10-17T08:54:37;17.00;99.90
52621;DHT22;38515;53.160;6.990;2022-10-17T08:57:12;17.00;99.90
52621;DHT22;38515;53.160;6.990;2022-10-17T08:59:38;17.10;99.90
52621;DHT22;38515;53.160;6.990;2022-10-17T09:02:29;17.00;99.90
52621;DHT22;38515;53.160;6.990;2022-10-17T09:05:13;17.10;99.90
52621;DHT22;38515;53.160;6.990;2022-10-17T09:07:52;17.00;99.90
52621;DHT22;38515;53.160;6.990;2022-10-17T09:10:36;17.10;99.90
52621;DHT22;38515;53.160;6.990;2022-10-17T09:13:18;17.10;99.90
52621;DHT22;38515;53.160;6.990;2022-10-17T09:16:05;17.10;99.90
52621;DHT22;38515;53.160;6.990;2022-10-17T09:18:38;17.40;99.90
52621;DHT22;38515;53.160;6.990;2022-10-17T09:21:24;17.20;99.90
52621;DHT22;38515;53.160;6.990;2022-10-17T09:23:56;17.30;99.90
52621;DHT22;38515;53.160;6.990;2022-10-17T09:26:24;17.30;99.90
52621;DHT22;38515;53.160;6.990;2022-10-17T09:28:53;17.30;99.90
52621;DHT22;38515;53.160;6.990;2022-10-17T09:31:23;17.30;99.90
52621;DHT22;38515;53.160;6.990;2022-10-17T09:33:54;17.30;99.90
52621;DHT22;38515;53.160;6.990;2022-10-17T09:36:26;17.30;99.90
52621;DHT22;38515;53.160;6.990;2022-10-17T09:38:58;17.30;99.90
52621;DHT22;38515;53.160;6.990;2022-10-17T09:41:29;17.30;99.90
52621;DHT22;38515;53.160;6.990;2022-10-17T09:43:58;17.20;99.90
52621;DHT22;38515;53.160;6.990;2022-10-17T09:46:35;17.20;99.90
52621;DHT22;38515;53.160;6.990;2022-10-17T09:49:09;17.20;99.90
52621;DHT22;38515;53.160;6.990;2022-10-17T09:51:37;17.20;99.90
52621;DHT22;38515;53.160;6.990;2022-10-17T09:54:23;17.20;99.90
52621;DHT22;38515;53.160;6.990;2022-10-17T09:57:00;17.20;99.90
52621;DHT22;38515;53.160;6.990;2022-10-17T09:59:36;17.20;99.90
52621;DHT22;38515;53.160;6.990;2022-10-17T10:02:16;17.20;99.90
52621;DHT22;38515;53.160;6.990;2022-10-17T10:04:58;17.20;99.90
52621;DHT22;38515;53.160;6.990;2022-10-17T10:07:28;17.20;99.90
52621;DHT22;38515;53.160;6.990;2022-10-17T10:09:55;17.20;99.90
52621;DHT22;38515;53.160;6.990;2022-10-17T10:12:26;17.20;99.90
52621;DHT22;38515;53.160;6.990;2022-10-17T10:14:52;17.20;99.90
52621;DHT22;38515;53.160;6.990;2022-10-17T10:17:32;17.10;99.90
52621;DHT22;38515;53.160;6.990;2022-10-17T10:19:59;17.10;99.90
52621;DHT22;38515;53.160;6.990;2022-10-17T10:22:25;17.00;99.90
52621;DHT22;38515;53.160;6.990;2022-10-17T10:25:11;17.00;99.90
52621;DHT22;38515;53.160;6.990;2022-10-17T10:27:40;17.00;99.90
52621;DHT22;38515;53.160;6.990;2022-10-17T10:30:16;16.90;99.90
52621;DHT22;38515;53.160;6.990;2022-10-17T10:32:46;16.90;99.90
52621;DHT22;38515;53.160;6.990;2022-10-17T10:35:28;16.80;99.90
52621;DHT22;38515;53.160;6.990;2022-10-17T10:37:57;16.80;99.90
52621;DHT22;38515;53.160;6.990;2022-10-17T10:42:51;16.70;99.90
52621;DHT22;38515;53.160;6.990;2022-10-17T10:45:21;16.70;99.90
52621;DHT22;38515;53.160;6.990;2022-10-17T10:47:57;16.70;99.90
52621;DHT22;38515;53.160;6.990;2022-10-17T10:53:21;16.70;99.90
52621;DHT22;38515;53.160;6.990;2022-10-17T10:55:57;16.60;99.90
52621;DHT22;38515;53.160;6.990;2022-10-17T10:58:31;16.60;99.90
52621;DHT22;38515;53.160;6.990;2022-10-17T11:01:04;16.60;99.90
52621;DHT22;38515;53.160;6.990;2022-10-17T11:03:36;16.60;99.90
52621;DHT22;38515;53.160;6.990;2022-10-17T11:06:12;16.60;99.90
52621;DHT22;38515;53.160;6.990;2022-10-17T11:08:49;16.60;99.90
52621;DHT22;38515;53.160;6.990;2022-10-17T11:11:31;16.50;99.90
52621;DHT22;38515;53.160;6.990;2022-10-17T11:14:15;16.50;99.90
52621;DHT22;38515;53.160;6.990;2022-10-17T11:16:55;16.50;99.90
52621;DHT22;38515;53.160;6.990;2022-10-17T11:19:34;16.50;99.90
52621;DHT22;38515;53.160;6.990;2022-10-17T11:22:23;16.50;99.90
52621;DHT22;38515;53.160;6.990;2022-10-17T11:24:55;16.50;99.90
52621;DHT22;38515;53.160;6.990;2022-10-17T11:27:27;16.50;99.90
52621;DHT22;38515;53.160;6.990;2022-10-17T11:29:54;16.50;99.90
52621;DHT22;38515;53.160;6.990;2022-10-17T11:32:27;16.50;99.90
52621;DHT22;38515;53.160;6.990;2022-10-17T11:35:01;16.60;99.90
52621;DHT22;38515;53.160;6.990;2022-10-17T11:37:33;16.60;99.90
52621;DHT22;38515;53.160;6.990;2022-10-17T11:40:02;16.60;99.90
52621;DHT22;38515;53.160;6.990;2022-10-17T11:45:05;16.70;99.90
52621;DHT22;38515;53.160;6.990;2022-10-17T11:47:44;16.70;99.90
52621;DHT22;38515;53.160;6.990;2022-10-17T11:50:33;16.70;99.90
52621;DHT22;38515;53.160;6.990;2022-10-17T11:53:07;17.10;99.90
52621;DHT22;38515;53.160;6.990;2022-10-17T11:55:35;16.60;99.90
52621;DHT22;38515;53.160;6.990;2022-10-17T11:58:14;16.60;99.90
52621;DHT22;38515;53.160;6.990;2022-10-17T12:03:46;16.60;99.90
52621;DHT22;38515;53.160;6.990;2022-10-17T12:09:15;16.50;99.90
52621;DHT22;38515;53.160;6.990;2022-10-17T12:11:48;16.50;99.90
52621;DHT22;38515;53.160;6.990;2022-10-17T12:14:38;16.50;99.90
52621;DHT22;38515;53.160;6.990;2022-10-17T12:17:20;16.50;99.90
52621;DHT22;38515;53.160;6.990;2022-10-17T12:19:48;16.50;99.90
52621;DHT22;38515;53.160;6.990;2022-10-17T12:22:20;16.60;99.90
52621;DHT22;38515;53.160;6.990;2022-10-17T12:25:03;16.60;99.90
52621;DHT22;38515;53.160;6.990;2022-10-17T12:27:34;16.60;99.90
52621;DHT22;38515;53.160;6.990;2022-10-17T12:30:15;16.70;99.90
52621;DHT22;38515;53.160;6.990;2022-10-17T12:32:58;16.70;99.90
52621;DHT22;38515;53.160;6.990;2022-10-17T12:35:27;16.70;99.90
52621;DHT22;38515;53.160;6.990;2022-10-17T12:43:02;16.90;99.90
52621;DHT22;38515;53.160;6.990;2022-10-17T12:45:49;16.90;99.90
52621;DHT22;38515;53.160;6.990;2022-10-17T12:56:18;17.00;99.90
52621;DHT22;38515;53.160;6.990;2022-10-17T12:58:50;17.00;99.90
52621;DHT22;38515;53.160;6.990;2022-10-17T13:01:23;17.00;99.90
52621;DHT22;38515;53.160;6.990;2022-10-17T13:03:51;17.00;99.90
52621;DHT22;38515;53.160;6.990;2022-10-17T13:06:24;17.00;99.90
52621;DHT22;38515;53.160;6.990;2022-10-17T13:09:00;17.00;99.90
52621;DHT22;38515;53.160;6.990;2022-10-17T13:11:29;17.00;99.90
52621;DHT22;38515;53.160;6.990;2022-10-17T13:13:58;16.90;99.90
52621;DHT22;38515;53.160;6.990;2022-10-17T13:16:33;16.90;99.90
52621;DHT22;38515;53.160;6.990;2022-10-17T13:19:01;16.90;99.90
52621;DHT22;38515;53.160;6.990;2022-10-17T13:21:27;16.80;99.90
52621;DHT22;38515;53.160;6.990;2022-10-17T13:23:53;16.80;99.90
52621;DHT22;38515;53.160;6.990;2022-10-17T13:26:26;16.80;99.90
52621;DHT22;38515;53.160;6.990;2022-10-17T13:29:03;16.80;99.90
52621;DHT22;38515;53.160;6.990;2022-10-17T13:31:33;16.70;99.90
52621;DHT22;38515;53.160;6.990;2022-10-17T13:34:02;16.70;99.90
52621;DHT22;38515;53.160;6.990;2022-10-17T13:36:29;16.70;99.90
52621;DHT22;38515;53.160;6.990;2022-10-17T13:38:59;16.60;99.90
52621;DHT22;38515;53.160;6.990;2022-10-17T13:41:30;16.60;99.90
52621;DHT22;38515;53.160;6.990;2022-10-17T13:43:57;16.50;99.90
52621;DHT22;38515;53.160;6.990;2022-10-17T13:46:30;16.50;99.90
52621;DHT22;38515;53.160;6.990;2022-10-17T13:48:57;16.40;99.90
52621;DHT22;38515;53.160;6.990;2022-10-17T13:51:25;16.30;99.90
52621;DHT22;38515;53.160;6.990;2022-10-17T13:53:52;16.30;99.90
52621;DHT22;38515;53.160;6.990;2022-10-17T13:56:22;16.20;99.90
52621;DHT22;38515;53.160;6.990;2022-10-17T13:58:55;16.20;99.90
52621;DHT22;38515;53.160;6.990;2022-10-17T14:01:24;16.10;99.90
52621;DHT22;38515;53.160;6.990;2022-10-17T14:03:51;16.00;99.90
52621;DHT22;38515;53.160;6.990;2022-10-17T14:06:23;16.00;99.90
52621;DHT22;38515;53.160;6.990;2022-10-17T14:08:53;16.00;99.90
52621;DHT22;38515;53.160;6.990;2022-10-17T14:11:25;15.90;99.90
52621;DHT22;38515;53.160;6.990;2022-10-17T14:13:54;16.00;99.90
52621;DHT22;38515;53.160;6.990;2022-10-17T14:16:21;15.90;99.90
52621;DHT22;38515;53.160;6.990;2022-10-17T14:18:49;15.90;99.90
52621;DHT22;38515;53.160;6.990;2022-10-17T14:21:22;15.90;99.90
52621;DHT22;38515;53.160;6.990;2022-10-17T14:23:50;15.90;99.90
52621;DHT22;38515;53.160;6.990;2022-10-17T14:26:20;15.90;99.90
52621;DHT22;38515;53.160;6.990;2022-10-17T14:29:03;15.80;99.90
52621;DHT22;38515;53.160;6.990;2022-10-17T14:31:34;15.80;99.90
52621;DHT22;38515;53.160;6.990;2022-10-17T14:34:02;15.80;99.90
52621;DHT22;38515;53.160;6.990;2022-10-17T14:36:37;15.80;99.90
52621;DHT22;38515;53.160;6.990;2022-10-17T14:39:06;15.80;99.90
52621;DHT22;38515;53.160;6.990;2022-10-17T14:41:34;15.60;99.90
52621;DHT22;38515;53.160;6.990;2022-10-17T14:44:03;15.90;99.90
52621;DHT22;38515;53.160;6.990;2022-10-17T14:46:32;15.80;99.90
52621;DHT22;38515;53.160;6.990;2022-10-17T14:49:05;15.80;99.90
52621;DHT22;38515;53.160;6.990;2022-10-17T14:51:31;15.80;99.90
52621;DHT22;38515;53.160;6.990;2022-10-17T14:54:02;15.70;99.90
52621;DHT22;38515;53.160;6.990;2022-10-17T14:56:39;15.70;99.90
52621;DHT22;38515;53.160;6.990;2022-10-17T14:59:06;15.70;99.90
52621;DHT22;38515;53.160;6.990;2022-10-17T15:01:33;15.60;99.90
52621;DHT22;38515;53.160;6.990;2022-10-17T15:03:59;15.60;99.90
52621;DHT22;38515;53.160;6.990;2022-10-17T15:06:28;15.60;99.90
52621;DHT22;38515;53.160;6.990;2022-10-17T15:08:55;15.60;99.90
52621;DHT22;38515;53.160;6.990;2022-10-17T15:11:21;15.50;99.90
52621;DHT22;38515;53.160;6.990;2022-10-17T15:13:47;15.50;99.90
52621;DHT22;38515;53.160;6.990;2022-10-17T15:16:18;15.50;99.90
52621;DHT22;38515;53.160;6.990;2022-10-17T15:18:44;15.50;99.90
52621;DHT22;38515;53.160;6.990;2022-10-17T15:21:13;15.40;99.90
52621;DHT22;38515;53.160;6.990;2022-10-17T15:23:39;15.40;99.90
52621;DHT22;38515;53.160;6.990;2022-10-17T15:26:15;15.40;99.90
52621;DHT22;38515;53.160;6.990;2022-10-17T15:28:42;15.40;99.90
52621;DHT22;38515;53.160;6.990;2022-10-17T15:31:11;15.30;99.90
52621;DHT22;38515;53.160;6.990;2022-10-17T15:33:37;15.30;99.90
52621;DHT22;38515;53.160;6.990;2022-10-17T15:36:04;15.30;99.90
52621;DHT22;38515;53.160;6.990;2022-10-17T15:38:30;15.30;99.90
52621;DHT22;38515;53.160;6.990;2022-10-17T15:40:56;15.30;99.90
52621;DHT22;38515;53.160;6.990;2022-10-17T15:43:22;15.30;99.90
52621;DHT22;38515;53.160;6.990;2022-10-17T15:45:47;15.30;99.90
52621;DHT22;38515;53.160;6.990;2022-10-17T15:48:18;15.30;99.90
52621;DHT22;38515;53.160;6.990;2022-10-17T15:50:46;15.30;99.90
52621;DHT22;38515;53.160;6.990;2022-10-17T15:53:12;15.40;99.90
52621;DHT22;38515;53.160;6.990;2022-10-17T15:55:38;15.50;99.90
52621;DHT22;38515;53.160;6.990;2022-10-17T15:58:04;15.20;99.90
52621;DHT22;38515;53.160;6.990;2022-10-17T16:00:30;15.10;99.90
52621;DHT22;38515;53.160;6.990;2022-10-17T16:02:55;15.10;99.90
52621;DHT22;38515;53.160;6.990;2022-10-17T16:05:23;15.10;99.90
52621;DHT22;38515;53.160;6.990;2022-10-17T16:07:52;15.10;99.90
52621;DHT22;38515;53.160;6.990;2022-10-17T16:10:18;15.10;99.90
52621;DHT22;38515;53.160;6.990;2022-10-17T16:12:44;15.00;99.90
52621;DHT22;38515;53.160;6.990;2022-10-17T16:15:17;15.00;99.90
52621;DHT22;38515;53.160;6.990;2022-10-17T16:17:44;14.40;99.90
52621;DHT22;38515;53.160;6.990;2022-10-17T16:20:12;14.90;99.90
52621;DHT22;38515;53.160;6.990;2022-10-17T16:22:40;14.80;99.90
52621;DHT22;38515;53.160;6.990;2022-10-17T16:27:45;14.80;99.90
52621;DHT22;38515;53.160;6.990;2022-10-17T16:30:12;14.70;99.90
52621;DHT22;38515;53.160;6.990;2022-10-17T16:32:38;14.70;99.90
52621;DHT22;38515;53.160;6.990;2022-10-17T16:35:05;14.70;99.90
52621;DHT22;38515;53.160;6.990;2022-10-17T16:37:31;14.60;99.90
52621;DHT22;38515;53.160;6.990;2022-10-17T16:39:57;14.60;99.90